sensor_id;sensor_type;location;lat;lon;timestamp;temperature;humidity
22633;DHT22;11483;55.828;37.488;2023-02-18T00:00:10;-6.10;99.90
22633;DHT22;11483;55.828;37.488;2023-02-18T00:02:38;-6.10;99.90
22633;DHT22;11483;55.828;37.488;2023-02-18T00:05:04;-6.10;99.90
22633;DHT22;11483;55.828;37.488;2023-02-18T00:10:33;-6.20;99.90
22633;DHT22;11483;55.828;37.488;2023-02-18T00:12:59;-6.20;99.90
22633;DHT22;11483;55.828;37.488;2023-02-18T00:15:26;-6.20;99.90
22633;DHT22;11483;55.828;37.488;2023-02-18T00:17:52;-6.20;99.90
22633;DHT22;11483;55.828;37.488;2023-02-18T00:20:17;-6.20;99.90
22633;DHT22;11483;55.828;37.488;2023-02-18T00:22:43;-6.10;99.90
22633;DHT22;11483;55.828;37.488;2023-02-18T00:25:09;-6.20;99.90
22633;DHT22;11483;55.828;37.488;2023-02-18T00:27:35;-6.20;99.90
22633;DHT22;11483;55.828;37.488;2023-02-18T00:30:01;-6.20;99.90
22633;DHT22;11483;55.828;37.488;2023-02-18T00:33:04;-6.10;99.90
22633;DHT22;11483;55.828;37.488;2023-02-18T00:35:29;-6.10;99.90
22633;DHT22;11483;55.828;37.488;2023-02-18T00:38:14;-6.10;99.90
22633;DHT22;11483;55.828;37.488;2023-02-18T00:40:40;-6.20;99.90
22633;DHT22;11483;55.828;37.488;2023-02-18T00:43:06;-6.20;99.90
22633;DHT22;11483;55.828;37.488;2023-02-18T00:45:32;-6.20;99.90
22633;DHT22;11483;55.828;37.488;2023-02-18T00:47:58;-6.20;99.90
22633;DHT22;11483;55.828;37.488;2023-02-18T00:50:24;-6.20;99.90
22633;DHT22;11483;55.828;37.488;2023-02-18T00:52:50;-6.20;99.90
22633;DHT22;11483;55.828;37.488;2023-02-18T00:55:16;-6.20;99.90
22633;DHT22;11483;55.828;37.488;2023-02-18T00:57:42;-6.30;99.90
22633;DHT22;11483;55.828;37.488;2023-02-18T01:00:08;-6.20;99.90
22633;DHT22;11483;55.828;37.488;2023-02-18T01:02:53;-6.20;99.90
22633;DHT22;11483;55.828;37.488;2023-02-18T01:05:38;-6.30;99.90
22633;DHT22;11483;55.828;37.488;2023-02-18T01:08:22;-6.30;99.90
22633;DHT22;11483;55.828;37.488;2023-02-18T01:10:51;-6.30;99.90
22633;DHT22;11483;55.828;37.488;2023-02-18T01:13:37;-6.30;99.90
22633;DHT22;11483;55.828;37.488;2023-02-18T01:16:21;-6.40;99.90
22633;DHT22;11483;55.828;37.488;2023-02-18T01:19:05;-6.30;99.90
22633;DHT22;11483;55.828;37.488;2023-02-18T01:21:31;-6.30;99.90
22633;DHT22;11483;55.828;37.488;2023-02-18T01:23:57;-6.30;99.90
22633;DHT22;11483;55.828;37.488;2023-02-18T01:26:24;-6.40;99.90
22633;DHT22;11483;55.828;37.488;2023-02-18T01:28:50;-6.40;99.90
22633;DHT22;11483;55.828;37.488;2023-02-18T01:31:16;-6.40;99.90
22633;DHT22;11483;55.828;37.488;2023-02-18T01:33:42;-6.40;99.90
22633;DHT22;11483;55.828;37.488;2023-02-18T01:36:09;-6.40;99.90
22633;DHT22;11483;55.828;37.488;2023-02-18T01:38:35;-6.50;99.90
22633;DHT22;11483;55.828;37.488;2023-02-18T01:41:02;-6.50;99.90
22633;DHT22;11483;55.828;37.488;2023-02-18T01:43:28;-6.50;99.90
22633;DHT22;11483;55.828;37.488;2023-02-18T01:46:13;-6.50;99.90
22633;DHT22;11483;55.828;37.488;2023-02-18T01:48:44;-6.50;99.90
22633;DHT22;11483;55.828;37.488;2023-02-18T01:51:21;-6.50;99.90
22633;DHT22;11483;55.828;37.488;2023-02-18T01:54:20;-6.60;99.90
22633;DHT22;11483;55.828;37.488;2023-02-18T01:59:32;-6.50;99.90
22633;DHT22;11483;55.828;37.488;2023-02-18T02:01:59;-6.60;99.90
22633;DHT22;11483;55.828;37.488;2023-02-18T02:04:25;-6.60;99.90
22633;DHT22;11483;55.828;37.488;2023-02-18T02:06:51;-6.60;99.90
22633;DHT22;11483;55.828;37.488;2023-02-18T02:09:18;-6.60;99.90
22633;DHT22;11483;55.828;37.488;2023-02-18T02:42:44;-6.80;99.90
22633;DHT22;11483;55.828;37.488;2023-02-18T02:45:17;-6.80;99.90
22633;DHT22;11483;55.828;37.488;2023-02-18T02:47:50;-6.80;99.90
22633;DHT22;11483;55.828;37.488;2023-02-18T02:50:49;-6.80;99.90
22633;DHT22;11483;55.828;37.488;2023-02-18T02:53:25;-6.90;99.90
22633;DHT22;11483;55.828;37.488;2023-02-18T02:55:52;-7.00;99.90
22633;DHT22;11483;55.828;37.488;2023-02-18T02:58:38;-7.00;99.90
22633;DHT22;11483;55.828;37.488;2023-02-18T03:20:40;-7.30;99.90
22633;DHT22;11483;55.828;37.488;2023-02-18T03:23:10;-7.30;99.90
22633;DHT22;11483;55.828;37.488;2023-02-18T03:25:40;-7.20;99.90
22633;DHT22;11483;55.828;37.488;2023-02-18T03:28:26;-7.20;99.90
22633;DHT22;11483;55.828;37.488;2023-02-18T03:30:59;-7.10;99.90
22633;DHT22;11483;55.828;37.488;2023-02-18T03:33:36;-7.10;99.90
22633;DHT22;11483;55.828;37.488;2023-02-18T03:36:04;-7.10;99.90
22633;DHT22;11483;55.828;37.488;2023-02-18T03:38:43;-7.20;99.90
22633;DHT22;11483;55.828;37.488;2023-02-18T03:41:10;-7.10;99.90
22633;DHT22;11483;55.828;37.488;2023-02-18T03:43:36;-7.20;99.90
22633;DHT22;11483;55.828;37.488;2023-02-18T03:46:02;-7.10;99.90
22633;DHT22;11483;55.828;37.488;2023-02-18T03:48:28;-7.10;99.90
22633;DHT22;11483;55.828;37.488;2023-02-18T03:50:54;-7.10;99.90
22633;DHT22;11483;55.828;37.488;2023-02-18T03:53:38;-7.10;99.90
22633;DHT22;11483;55.828;37.488;2023-02-18T03:56:23;-7.00;99.90
22633;DHT22;11483;55.828;37.488;2023-02-18T03:58:49;-7.00;99.90
22633;DHT22;11483;55.828;37.488;2023-02-18T04:01:15;-7.10;99.90
22633;DHT22;11483;55.828;37.488;2023-02-18T04:03:41;-7.10;99.90
22633;DHT22;11483;55.828;37.488;2023-02-18T04:06:07;-7.10;99.90
22633;DHT22;11483;55.828;37.488;2023-02-18T04:08:34;-7.10;99.90
22633;DHT22;11483;55.828;37.488;2023-02-18T04:11:00;-7.10;99.90
22633;DHT22;11483;55.828;37.488;2023-02-18T04:13:26;-7.10;99.90
22633;DHT22;11483;55.828;37.488;2023-02-18T04:16:11;-7.20;99.90
22633;DHT22;11483;55.828;37.488;2023-02-18T04:18:37;-7.30;99.90
22633;DHT22;11483;55.828;37.488;2023-02-18T04:21:21;-7.10;99.90
22633;DHT22;11483;55.828;37.488;2023-02-18T04:23:47;-7.20;99.90
22633;DHT22;11483;55.828;37.488;2023-02-18T04:26:13;-7.10;99.90
22633;DHT22;11483;55.828;37.488;2023-02-18T04:31:23;-7.10;99.90
22633;DHT22;11483;55.828;37.488;2023-02-18T04:33:49;-7.10;99.90
22633;DHT22;11483;55.828;37.488;2023-02-18T04:36:15;-7.20;99.90
22633;DHT22;11483;55.828;37.488;2023-02-18T04:38:41;-7.20;99.90
22633;DHT22;11483;55.828;37.488;2023-02-18T04:41:07;-7.20;99.90
22633;DHT22;11483;55.828;37.488;2023-02-18T04:43:33;-7.30;99.90
22633;DHT22;11483;55.828;37.488;2023-02-18T04:46:18;-7.30;99.90
22633;DHT22;11483;55.828;37.488;2023-02-18T04:48:44;-7.20;99.90
22633;DHT22;11483;55.828;37.488;2023-02-18T04:53:54;-7.20;99.90
22633;DHT22;11483;55.828;37.488;2023-02-18T04:56:38;-7.10;99.90
22633;DHT22;11483;55.828;37.488;2023-02-18T04:59:04;-7.10;99.90
22633;DHT22;11483;55.828;37.488;2023-02-18T05:01:30;-7.10;99.90
22633;DHT22;11483;55.828;37.488;2023-02-18T05:03:55;-7.10;99.90
22633;DHT22;11483;55.828;37.488;2023-02-18T05:06:21;-7.10;99.90
22633;DHT22;11483;55.828;37.488;2023-02-18T05:08:47;-7.00;99.90
22633;DHT22;11483;55.828;37.488;2023-02-18T05:11:13;-7.00;99.90
22633;DHT22;11483;55.828;37.488;2023-02-18T05:13:38;-6.90;99.90
22633;DHT22;11483;55.828;37.488;2023-02-18T05:19:08;-6.80;99.90
22633;DHT22;11483;55.828;37.488;2023-02-18T05:21:35;-6.80;99.90
22633;DHT22;11483;55.828;37.488;2023-02-18T05:24:01;-6.80;99.90
22633;DHT22;11483;55.828;37.488;2023-02-18T05:26:27;-6.80;99.90
22633;DHT22;11483;55.828;37.488;2023-02-18T05:28:52;-6.90;99.90
22633;DHT22;11483;55.828;37.488;2023-02-18T05:31:18;-6.90;99.90
22633;DHT22;11483;55.828;37.488;2023-02-18T05:33:44;-6.90;99.90
22633;DHT22;11483;55.828;37.488;2023-02-18T05:36:10;-6.90;99.90
22633;DHT22;11483;55.828;37.488;2023-02-18T05:38:36;-6.80;99.90
22633;DHT22;11483;55.828;37.488;2023-02-18T05:41:02;-6.70;99.90
22633;DHT22;11483;55.828;37.488;2023-02-18T05:43:28;-6.70;99.90
22633;DHT22;11483;55.828;37.488;2023-02-18T05:45:53;-6.70;99.90
22633;DHT22;11483;55.828;37.488;2023-02-18T05:48:19;-6.70;99.90
22633;DHT22;11483;55.828;37.488;2023-02-18T05:50:45;-6.70;99.90
22633;DHT22;11483;55.828;37.488;2023-02-18T05:53:30;-6.70;99.90
22633;DHT22;11483;55.828;37.488;2023-02-18T05:55:56;-6.70;99.90
22633;DHT22;11483;55.828;37.488;2023-02-18T05:58:25;-6.60;99.90
22633;DHT22;11483;55.828;37.488;2023-02-18T06:00:53;-6.60;99.90
22633;DHT22;11483;55.828;37.488;2023-02-18T06:03:19;-6.50;99.90
22633;DHT22;11483;55.828;37.488;2023-02-18T06:05:48;-6.50;99.90
22633;DHT22;11483;55.828;37.488;2023-02-18T06:08:14;-6.40;99.90
22633;DHT22;11483;55.828;37.488;2023-02-18T06:10:40;-6.40;99.90
22633;DHT22;11483;55.828;37.488;2023-02-18T06:13:06;-6.30;99.90
22633;DHT22;11483;55.828;37.488;2023-02-18T06:15:32;-6.40;99.90
22633;DHT22;11483;55.828;37.488;2023-02-18T06:17:58;-6.50;99.90
22633;DHT22;11483;55.828;37.488;2023-02-18T06:20:24;-6.50;99.90
22633;DHT22;11483;55.828;37.488;2023-02-18T06:22:50;-6.40;99.90
22633;DHT22;11483;55.828;37.488;2023-02-18T06:25:34;-6.50;99.90
22633;DHT22;11483;55.828;37.488;2023-02-18T06:28:00;-6.40;99.90
22633;DHT22;11483;55.828;37.488;2023-02-18T06:30:26;-6.30;99.90
22633;DHT22;11483;55.828;37.488;2023-02-18T06:32:52;-6.20;99.90
22633;DHT22;11483;55.828;37.488;2023-02-18T06:35:18;-6.20;99.90
22633;DHT22;11483;55.828;37.488;2023-02-18T06:37:43;-6.30;99.90
22633;DHT22;11483;55.828;37.488;2023-02-18T06:40:10;-6.30;99.90
22633;DHT22;11483;55.828;37.488;2023-02-18T06:42:36;-6.30;99.90
22633;DHT22;11483;55.828;37.488;2023-02-18T06:45:02;-6.20;99.90
22633;DHT22;11483;55.828;37.488;2023-02-18T06:47:28;-6.20;99.90
22633;DHT22;11483;55.828;37.488;2023-02-18T06:49:54;-6.10;99.90
22633;DHT22;11483;55.828;37.488;2023-02-18T06:52:19;-6.10;99.90
22633;DHT22;11483;55.828;37.488;2023-02-18T06:54:45;-6.10;99.90
22633;DHT22;11483;55.828;37.488;2023-02-18T06:57:30;-6.20;99.90
22633;DHT22;11483;55.828;37.488;2023-02-18T06:59:55;-6.10;99.90
22633;DHT22;11483;55.828;37.488;2023-02-18T07:02:32;-6.10;99.90
22633;DHT22;11483;55.828;37.488;2023-02-18T07:04:58;-6.10;99.90
22633;DHT22;11483;55.828;37.488;2023-02-18T07:07:24;-6.00;99.90
22633;DHT22;11483;55.828;37.488;2023-02-18T07:09:49;-5.90;99.90
22633;DHT22;11483;55.828;37.488;2023-02-18T07:12:15;-5.80;99.90
22633;DHT22;11483;55.828;37.488;2023-02-18T07:14:41;-5.70;99.90
22633;DHT22;11483;55.828;37.488;2023-02-18T07:17:07;-5.70;99.90
22633;DHT22;11483;55.828;37.488;2023-02-18T07:19:33;-5.70;99.90
22633;DHT22;11483;55.828;37.488;2023-02-18T07:24:43;-5.60;99.90
22633;DHT22;11483;55.828;37.488;2023-02-18T07:27:09;-5.60;99.90
22633;DHT22;11483;55.828;37.488;2023-02-18T07:30:03;-5.50;99.90
22633;DHT22;11483;55.828;37.488;2023-02-18T07:32:29;-5.50;99.90
22633;DHT22;11483;55.828;37.488;2023-02-18T07:34:54;-5.50;99.90
22633;DHT22;11483;55.828;37.488;2023-02-18T07:37:20;-5.50;99.90
22633;DHT22;11483;55.828;37.488;2023-02-18T07:39:46;-5.50;99.90
22633;DHT22;11483;55.828;37.488;2023-02-18T07:42:12;-5.30;99.90
22633;DHT22;11483;55.828;37.488;2023-02-18T07:44:39;-5.40;99.90
22633;DHT22;11483;55.828;37.488;2023-02-18T07:47:06;-5.40;99.90
22633;DHT22;11483;55.828;37.488;2023-02-18T07:52:16;-5.30;99.90
22633;DHT22;11483;55.828;37.488;2023-02-18T07:54:42;-5.20;99.90
22633;DHT22;11483;55.828;37.488;2023-02-18T07:57:08;-5.10;99.90
22633;DHT22;11483;55.828;37.488;2023-02-18T07:59:34;-5.00;99.90
22633;DHT22;11483;55.828;37.488;2023-02-18T08:02:00;-4.80;99.90
22633;DHT22;11483;55.828;37.488;2023-02-18T08:04:26;-4.60;99.90
22633;DHT22;11483;55.828;37.488;2023-02-18T08:06:52;-4.60;99.90
22633;DHT22;11483;55.828;37.488;2023-02-18T08:09:18;-4.60;99.90
22633;DHT22;11483;55.828;37.488;2023-02-18T08:11:44;-4.60;99.90
22633;DHT22;11483;55.828;37.488;2023-02-18T08:14:10;-4.70;99.90
22633;DHT22;11483;55.828;37.488;2023-02-18T08:19:20;-4.50;99.90
22633;DHT22;11483;55.828;37.488;2023-02-18T08:21:46;-4.20;99.90
22633;DHT22;11483;55.828;37.488;2023-02-18T08:24:12;-4.00;99.90
22633;DHT22;11483;55.828;37.488;2023-02-18T08:27:15;-3.60;99.90
22633;DHT22;11483;55.828;37.488;2023-02-18T08:29:41;-3.40;99.90
22633;DHT22;11483;55.828;37.488;2023-02-18T08:32:28;-3.10;99.90
22633;DHT22;11483;55.828;37.488;2023-02-18T08:34:54;-2.60;99.90
22633;DHT22;11483;55.828;37.488;2023-02-18T08:37:20;-2.10;99.90
22633;DHT22;11483;55.828;37.488;2023-02-18T08:39:47;-1.10;99.90
22633;DHT22;11483;55.828;37.488;2023-02-18T08:42:12;-0.70;99.90
22633;DHT22;11483;55.828;37.488;2023-02-18T08:44:38;-1.20;99.90
22633;DHT22;11483;55.828;37.488;2023-02-18T08:53:11;-1.90;99.90
22633;DHT22;11483;55.828;37.488;2023-02-18T08:58:23;-2.00;99.90
22633;DHT22;11483;55.828;37.488;2023-02-18T09:01:10;-2.30;99.90
22633;DHT22;11483;55.828;37.488;2023-02-18T09:03:36;-2.60;99.90
22633;DHT22;11483;55.828;37.488;2023-02-18T09:06:02;-3.10;99.90
22633;DHT22;11483;55.828;37.488;2023-02-18T09:08:29;-3.20;99.90
22633;DHT22;11483;55.828;37.488;2023-02-18T09:10:59;-3.30;99.90
22633;DHT22;11483;55.828;37.488;2023-02-18T09:13:26;-3.10;99.90
22633;DHT22;11483;55.828;37.488;2023-02-18T09:16:00;-2.70;99.90
22633;DHT22;11483;55.828;37.488;2023-02-18T09:18:27;-2.50;99.90
22633;DHT22;11483;55.828;37.488;2023-02-18T09:21:13;-2.80;99.90
22633;DHT22;11483;55.828;37.488;2023-02-18T09:23:40;-3.10;99.90
22633;DHT22;11483;55.828;37.488;2023-02-18T09:26:09;-3.40;99.90
22633;DHT22;11483;55.828;37.488;2023-02-18T09:28:55;-3.50;99.90
22633;DHT22;11483;55.828;37.488;2023-02-18T09:31:23;-3.70;99.90
22633;DHT22;11483;55.828;37.488;2023-02-18T09:33:58;-3.70;99.90
22633;DHT22;11483;55.828;37.488;2023-02-18T09:36:25;-3.60;99.90
22633;DHT22;11483;55.828;37.488;2023-02-18T09:38:51;-3.20;99.90
22633;DHT22;11483;55.828;37.488;2023-02-18T09:44:05;-2.00;99.90
22633;DHT22;11483;55.828;37.488;2023-02-18T09:46:38;-2.00;99.90
22633;DHT22;11483;55.828;37.488;2023-02-18T09:49:25;-2.00;99.90
22633;DHT22;11483;55.828;37.488;2023-02-18T09:52:15;-1.40;99.90
22633;DHT22;11483;55.828;37.488;2023-02-18T09:57:52;-1.00;99.90
22633;DHT22;11483;55.828;37.488;2023-02-18T10:00:24;0.30;99.90
22633;DHT22;11483;55.828;37.488;2023-02-18T10:05:24;2.80;99.90
22633;DHT22;11483;55.828;37.488;2023-02-18T10:07:53;3.90;99.90
22633;DHT22;11483;55.828;37.488;2023-02-18T10:10:30;4.30;99.90
22633;DHT22;11483;55.828;37.488;2023-02-18T10:12:59;4.30;99.90
22633;DHT22;11483;55.828;37.488;2023-02-18T10:15:28;3.70;99.90
22633;DHT22;11483;55.828;37.488;2023-02-18T10:20:40;2.80;99.90
22633;DHT22;11483;55.828;37.488;2023-02-18T10:29:15;1.00;99.90
22633;DHT22;11483;55.828;37.488;2023-02-18T10:34:38;-0.60;99.90
22633;DHT22;11483;55.828;37.488;2023-02-18T10:51:27;1.40;99.90
22633;DHT22;11483;55.828;37.488;2023-02-18T10:53:54;1.00;99.90
22633;DHT22;11483;55.828;37.488;2023-02-18T10:56:39;1.10;99.90
22633;DHT22;11483;55.828;37.488;2023-02-18T10:59:30;1.20;99.90
22633;DHT22;11483;55.828;37.488;2023-02-18T11:02:00;2.30;99.90
22633;DHT22;11483;55.828;37.488;2023-02-18T11:04:38;2.80;99.90
22633;DHT22;11483;55.828;37.488;2023-02-18T11:07:11;3.50;99.90
22633;DHT22;11483;55.828;37.488;2023-02-18T11:09:47;3.30;99.90
22633;DHT22;11483;55.828;37.488;2023-02-18T11:15:06;4.60;99.90
22633;DHT22;11483;55.828;37.488;2023-02-18T11:17:42;4.90;99.90
22633;DHT22;11483;55.828;37.488;2023-02-18T11:20:33;5.80;99.90
22633;DHT22;11483;55.828;37.488;2023-02-18T11:25:37;4.40;99.90
22633;DHT22;11483;55.828;37.488;2023-02-18T11:30:54;4.70;99.90
22633;DHT22;11483;55.828;37.488;2023-02-18T11:36:03;4.30;99.90
22633;DHT22;11483;55.828;37.488;2023-02-18T11:38:49;4.00;99.90
22633;DHT22;11483;55.828;37.488;2023-02-18T11:41:43;4.20;99.90
22633;DHT22;11483;55.828;37.488;2023-02-18T11:44:36;3.10;99.90
22633;DHT22;11483;55.828;37.488;2023-02-18T11:49:39;2.20;99.90
22633;DHT22;11483;55.828;37.488;2023-02-18T11:54:34;1.20;99.90
22633;DHT22;11483;55.828;37.488;2023-02-18T11:57:11;1.00;99.90
22633;DHT22;11483;55.828;37.488;2023-02-18T11:59:39;1.20;99.90
22633;DHT22;11483;55.828;37.488;2023-02-18T12:04:52;1.10;99.90
22633;DHT22;11483;55.828;37.488;2023-02-18T12:07:41;1.60;99.90
22633;DHT22;11483;55.828;37.488;2023-02-18T12:13:16;1.70;99.90
22633;DHT22;11483;55.828;37.488;2023-02-18T12:18:20;2.00;99.90
22633;DHT22;11483;55.828;37.488;2023-02-18T12:26:25;2.30;99.90
22633;DHT22;11483;55.828;37.488;2023-02-18T12:45:24;0.10;99.90
22633;DHT22;11483;55.828;37.488;2023-02-18T12:48:17;0.30;99.90
22633;DHT22;11483;55.828;37.488;2023-02-18T12:51:02;0.40;99.90
22633;DHT22;11483;55.828;37.488;2023-02-18T12:59:45;-0.10;99.90
22633;DHT22;11483;55.828;37.488;2023-02-18T13:04:53;-0.50;99.90
22633;DHT22;11483;55.828;37.488;2023-02-18T13:10:17;-0.90;99.90
22633;DHT22;11483;55.828;37.488;2023-02-18T13:13:08;-1.00;99.90
22633;DHT22;11483;55.828;37.488;2023-02-18T13:18:36;-1.50;99.90
22633;DHT22;11483;55.828;37.488;2023-02-18T13:21:14;-1.60;99.90
22633;DHT22;11483;55.828;37.488;2023-02-18T13:23:57;-1.70;99.90
22633;DHT22;11483;55.828;37.488;2023-02-18T13:26:25;-2.10;99.90
22633;DHT22;11483;55.828;37.488;2023-02-18T13:29:30;-2.30;99.90
22633;DHT22;11483;55.828;37.488;2023-02-18T13:32:00;-2.50;99.90
22633;DHT22;11483;55.828;37.488;2023-02-18T13:34:52;-2.70;99.90
22633;DHT22;11483;55.828;37.488;2023-02-18T13:40:00;-2.90;99.90
22633;DHT22;11483;55.828;37.488;2023-02-18T13:47:41;-3.00;99.90
22633;DHT22;11483;55.828;37.488;2023-02-18T13:50:39;-3.20;99.90
22633;DHT22;11483;55.828;37.488;2023-02-18T13:58:16;-3.20;99.90
22633;DHT22;11483;55.828;37.488;2023-02-18T14:06:20;-3.30;99.90
22633;DHT22;11483;55.828;37.488;2023-02-18T14:08:48;-3.40;99.90
22633;DHT22;11483;55.828;37.488;2023-02-18T14:16:25;-3.50;99.90
22633;DHT22;11483;55.828;37.488;2023-02-18T14:18:57;-3.50;99.90
22633;DHT22;11483;55.828;37.488;2023-02-18T14:22:21;-3.50;99.90
22633;DHT22;11483;55.828;37.488;2023-02-18T14:24:47;-3.50;99.90
22633;DHT22;11483;55.828;37.488;2023-02-18T14:27:16;-3.50;99.90
22633;DHT22;11483;55.828;37.488;2023-02-18T14:29:42;-3.50;99.90
22633;DHT22;11483;55.828;37.488;2023-02-18T14:32:11;-3.50;99.90
22633;DHT22;11483;55.828;37.488;2023-02-18T14:34:59;-3.50;99.90
22633;DHT22;11483;55.828;37.488;2023-02-18T14:41:09;-3.60;99.90
22633;DHT22;11483;55.828;37.488;2023-02-18T14:46:25;-3.70;99.90
22633;DHT22;11483;55.828;37.488;2023-02-18T14:51:58;-3.70;99.90
22633;DHT22;11483;55.828;37.488;2023-02-18T14:54:25;-3.70;99.90
22633;DHT22;11483;55.828;37.488;2023-02-18T14:57:13;-3.70;99.90
22633;DHT22;11483;55.828;37.488;2023-02-18T14:59:41;-3.80;99.90
22633;DHT22;11483;55.828;37.488;2023-02-18T15:02:18;-3.80;99.90
22633;DHT22;11483;55.828;37.488;2023-02-18T15:04:45;-3.80;99.90
22633;DHT22;11483;55.828;37.488;2023-02-18T15:07:12;-3.80;99.90
22633;DHT22;11483;55.828;37.488;2023-02-18T15:10:04;-3.80;99.90
22633;DHT22;11483;55.828;37.488;2023-02-18T15:12:37;-3.80;99.90
22633;DHT22;11483;55.828;37.488;2023-02-18T15:15:04;-3.80;99.90
22633;DHT22;11483;55.828;37.488;2023-02-18T15:17:31;-3.80;99.90
22633;DHT22;11483;55.828;37.488;2023-02-18T15:20:02;-3.90;99.90
22633;DHT22;11483;55.828;37.488;2023-02-18T15:22:34;-3.90;99.90
22633;DHT22;11483;55.828;37.488;2023-02-18T15:25:05;-3.90;99.90
22633;DHT22;11483;55.828;37.488;2023-02-18T15:27:33;-3.90;99.90
22633;DHT22;11483;55.828;37.488;2023-02-18T15:30:26;-3.90;99.90
22633;DHT22;11483;55.828;37.488;2023-02-18T15:32:58;-4.00;99.90
22633;DHT22;11483;55.828;37.488;2023-02-18T15:35:27;-4.00;99.90
22633;DHT22;11483;55.828;37.488;2023-02-18T15:37:56;-4.10;99.90
22633;DHT22;11483;55.828;37.488;2023-02-18T15:40:30;-4.10;99.90
22633;DHT22;11483;55.828;37.488;2023-02-18T15:42:58;-4.10;99.90
22633;DHT22;11483;55.828;37.488;2023-02-18T15:45:31;-4.20;99.90
22633;DHT22;11483;55.828;37.488;2023-02-18T15:47:58;-4.10;99.90
22633;DHT22;11483;55.828;37.488;2023-02-18T15:53:13;-4.10;99.90
22633;DHT22;11483;55.828;37.488;2023-02-18T15:55:42;-4.10;99.90
22633;DHT22;11483;55.828;37.488;2023-02-18T15:58:30;-4.20;99.90
22633;DHT22;11483;55.828;37.488;2023-02-18T16:01:02;-4.20;99.90
22633;DHT22;11483;55.828;37.488;2023-02-18T16:06:26;-4.10;99.90
22633;DHT22;11483;55.828;37.488;2023-02-18T16:09:02;-4.10;99.90
22633;DHT22;11483;55.828;37.488;2023-02-18T16:11:33;-4.20;99.90
22633;DHT22;11483;55.828;37.488;2023-02-18T16:14:00;-4.20;99.90
22633;DHT22;11483;55.828;37.488;2023-02-18T16:16:30;-4.20;99.90
22633;DHT22;11483;55.828;37.488;2023-02-18T16:18:58;-4.20;99.90
22633;DHT22;11483;55.828;37.488;2023-02-18T16:21:30;-4.10;99.90
22633;DHT22;11483;55.828;37.488;2023-02-18T16:24:00;-4.10;99.90
22633;DHT22;11483;55.828;37.488;2023-02-18T16:29:14;-4.10;99.90
22633;DHT22;11483;55.828;37.488;2023-02-18T16:31:40;-4.10;99.90
22633;DHT22;11483;55.828;37.488;2023-02-18T16:34:06;-4.10;99.90
22633;DHT22;11483;55.828;37.488;2023-02-18T16:36:32;-4.10;99.90
22633;DHT22;11483;55.828;37.488;2023-02-18T16:38:59;-4.10;99.90
22633;DHT22;11483;55.828;37.488;2023-02-18T16:41:27;-4.10;99.90
22633;DHT22;11483;55.828;37.488;2023-02-18T16:43:53;-4.10;99.90
22633;DHT22;11483;55.828;37.488;2023-02-18T16:46:21;-4.10;99.90
22633;DHT22;11483;55.828;37.488;2023-02-18T16:48:54;-4.10;99.90
22633;DHT22;11483;55.828;37.488;2023-02-18T16:51:31;-4.10;99.90
22633;DHT22;11483;55.828;37.488;2023-02-18T16:53:59;-4.10;99.90
22633;DHT22;11483;55.828;37.488;2023-02-18T16:56:28;-4.10;99.90
22633;DHT22;11483;55.828;37.488;2023-02-18T16:58:56;-4.10;99.90
22633;DHT22;11483;55.828;37.488;2023-02-18T17:01:32;-4.10;99.90
22633;DHT22;11483;55.828;37.488;2023-02-18T17:04:00;-4.00;99.90
22633;DHT22;11483;55.828;37.488;2023-02-18T17:06:26;-4.00;99.90
22633;DHT22;11483;55.828;37.488;2023-02-18T17:08:53;-4.00;99.90
22633;DHT22;11483;55.828;37.488;2023-02-18T17:11:22;-4.00;99.90
22633;DHT22;11483;55.828;37.488;2023-02-18T17:13:49;-4.00;99.90
22633;DHT22;11483;55.828;37.488;2023-02-18T17:16:15;-4.00;99.90
22633;DHT22;11483;55.828;37.488;2023-02-18T17:18:42;-4.00;99.90
22633;DHT22;11483;55.828;37.488;2023-02-18T17:21:16;-4.00;99.90
22633;DHT22;11483;55.828;37.488;2023-02-18T17:23:43;-4.00;99.90
22633;DHT22;11483;55.828;37.488;2023-02-18T17:26:21;-3.90;99.90
22633;DHT22;11483;55.828;37.488;2023-02-18T17:28:49;-4.00;99.90
22633;DHT22;11483;55.828;37.488;2023-02-18T17:31:18;-4.00;99.90
22633;DHT22;11483;55.828;37.488;2023-02-18T17:33:45;-4.00;99.90
22633;DHT22;11483;55.828;37.488;2023-02-18T17:36:11;-4.00;99.90
22633;DHT22;11483;55.828;37.488;2023-02-18T17:38:38;-4.00;99.90
22633;DHT22;11483;55.828;37.488;2023-02-18T17:41:05;-4.00;99.90
22633;DHT22;11483;55.828;37.488;2023-02-18T17:43:31;-3.90;99.90
22633;DHT22;11483;55.828;37.488;2023-02-18T17:45:57;-4.00;99.90
22633;DHT22;11483;55.828;37.488;2023-02-18T17:48:23;-4.00;99.90
22633;DHT22;11483;55.828;37.488;2023-02-18T17:50:50;-4.00;99.90
22633;DHT22;11483;55.828;37.488;2023-02-18T17:53:17;-4.00;99.90
22633;DHT22;11483;55.828;37.488;2023-02-18T17:55:45;-4.00;99.90
22633;DHT22;11483;55.828;37.488;2023-02-18T17:58:12;-3.90;99.90
22633;DHT22;11483;55.828;37.488;2023-02-18T18:03:13;-3.90;99.90
22633;DHT22;11483;55.828;37.488;2023-02-18T18:05:41;-3.90;99.90
22633;DHT22;11483;55.828;37.488;2023-02-18T18:08:08;-4.00;99.90
22633;DHT22;11483;55.828;37.488;2023-02-18T18:10:37;-3.90;99.90
22633;DHT22;11483;55.828;37.488;2023-02-18T18:13:10;-3.90;99.90
22633;DHT22;11483;55.828;37.488;2023-02-18T18:15:42;-3.90;99.90
22633;DHT22;11483;55.828;37.488;2023-02-18T18:18:12;-3.90;99.90
22633;DHT22;11483;55.828;37.488;2023-02-18T18:20:39;-3.90;99.90
22633;DHT22;11483;55.828;37.488;2023-02-18T18:23:06;-3.90;99.90
22633;DHT22;11483;55.828;37.488;2023-02-18T18:25:54;-3.90;99.90
22633;DHT22;11483;55.828;37.488;2023-02-18T18:28:21;-3.80;99.90
22633;DHT22;11483;55.828;37.488;2023-02-18T18:30:50;-3.80;99.90
22633;DHT22;11483;55.828;37.488;2023-02-18T18:35:49;-3.80;99.90
22633;DHT22;11483;55.828;37.488;2023-02-18T18:38:17;-3.80;99.90
22633;DHT22;11483;55.828;37.488;2023-02-18T18:40:44;-3.80;99.90
22633;DHT22;11483;55.828;37.488;2023-02-18T18:43:19;-3.80;99.90
22633;DHT22;11483;55.828;37.488;2023-02-18T18:45:45;-3.80;99.90
22633;DHT22;11483;55.828;37.488;2023-02-18T18:48:12;-3.80;99.90
22633;DHT22;11483;55.828;37.488;2023-02-18T18:50:41;-3.80;99.90
22633;DHT22;11483;55.828;37.488;2023-02-18T18:55:41;-3.90;99.90
22633;DHT22;11483;55.828;37.488;2023-02-18T18:58:07;-3.90;99.90
22633;DHT22;11483;55.828;37.488;2023-02-18T19:00:39;-3.90;99.90
22633;DHT22;11483;55.828;37.488;2023-02-18T19:03:05;-3.90;99.90
22633;DHT22;11483;55.828;37.488;2023-02-18T19:05:36;-3.90;99.90
22633;DHT22;11483;55.828;37.488;2023-02-18T19:08:05;-3.90;99.90
22633;DHT22;11483;55.828;37.488;2023-02-18T19:10:36;-4.00;99.90
22633;DHT22;11483;55.828;37.488;2023-02-18T19:13:43;-4.00;99.90
22633;DHT22;11483;55.828;37.488;2023-02-18T19:18:45;-4.00;99.90
22633;DHT22;11483;55.828;37.488;2023-02-18T19:21:11;-4.00;99.90
22633;DHT22;11483;55.828;37.488;2023-02-18T19:23:37;-4.00;99.90
22633;DHT22;11483;55.828;37.488;2023-02-18T19:26:07;-4.00;99.90
22633;DHT22;11483;55.828;37.488;2023-02-18T19:28:33;-4.00;99.90